sensor_id;sensor_type;location;lat;lon;timestamp;temperature;humidity
70460;DHT22;57920;54.796;9.430;2022-07-18T00:02:16;20.10;56.60
70460;DHT22;57920;54.796;9.430;2022-07-18T00:04:41;20.10;56.70
70460;DHT22;57920;54.796;9.430;2022-07-18T00:07:07;20.10;56.60
70460;DHT22;57920;54.796;9.430;2022-07-18T00:09:36;20.10;56.70
70460;DHT22;57920;54.796;9.430;2022-07-18T00:12:02;20.10;56.70
70460;DHT22;57920;54.796;9.430;2022-07-18T00:14:27;20.10;56.70
70460;DHT22;57920;54.796;9.430;2022-07-18T00:16:53;20.10;56.70
70460;DHT22;57920;54.796;9.430;2022-07-18T00:19:19;20.10;56.70
70460;DHT22;57920;54.796;9.430;2022-07-18T00:21:44;20.10;56.70
70460;DHT22;57920;54.796;9.430;2022-07-18T00:24:10;20.10;56.80
70460;DHT22;57920;54.796;9.430;2022-07-18T00:26:35;20.10;56.80
70460;DHT22;57920;54.796;9.430;2022-07-18T00:29:01;20.10;56.80
70460;DHT22;57920;54.796;9.430;2022-07-18T00:31:27;20.10;56.70
70460;DHT22;57920;54.796;9.430;2022-07-18T00:33:52;20.10;56.80
70460;DHT22;57920;54.796;9.430;2022-07-18T00:36:18;20.10;56.80
70460;DHT22;57920;54.796;9.430;2022-07-18T00:38:43;20.10;56.80
70460;DHT22;57920;54.796;9.430;2022-07-18T00:41:09;20.10;56.80
70460;DHT22;57920;54.796;9.430;2022-07-18T00:43:34;20.00;56.90
70460;DHT22;57920;54.796;9.430;2022-07-18T00:46:00;20.00;56.80
70460;DHT22;57920;54.796;9.430;2022-07-18T00:48:26;20.00;56.90
70460;DHT22;57920;54.796;9.430;2022-07-18T00:50:51;20.00;56.90
70460;DHT22;57920;54.796;9.430;2022-07-18T00:53:17;20.00;56.90
70460;DHT22;57920;54.796;9.430;2022-07-18T00:55:44;20.00;56.90
70460;DHT22;57920;54.796;9.430;2022-07-18T00:58:12;20.00;56.90
70460;DHT22;57920;54.796;9.430;2022-07-18T01:00:38;20.00;56.90
70460;DHT22;57920;54.796;9.430;2022-07-18T01:03:23;20.00;56.90
70460;DHT22;57920;54.796;9.430;2022-07-18T01:05:48;20.00;56.90
70460;DHT22;57920;54.796;9.430;2022-07-18T01:08:14;20.00;56.90
70460;DHT22;57920;54.796;9.430;2022-07-18T01:10:40;20.00;56.90
70460;DHT22;57920;54.796;9.430;2022-07-18T01:13:06;20.00;56.90
70460;DHT22;57920;54.796;9.430;2022-07-18T01:15:31;20.00;56.90
70460;DHT22;57920;54.796;9.430;2022-07-18T01:17:57;20.00;57.00
70460;DHT22;57920;54.796;9.430;2022-07-18T01:20:30;20.00;57.00
70460;DHT22;57920;54.796;9.430;2022-07-18T01:22:57;20.00;57.00
70460;DHT22;57920;54.796;9.430;2022-07-18T01:25:23;20.00;57.00
70460;DHT22;57920;54.796;9.430;2022-07-18T01:27:48;20.10;56.90
70460;DHT22;57920;54.796;9.430;2022-07-18T01:30:14;20.10;56.80
70460;DHT22;57920;54.796;9.430;2022-07-18T01:32:41;20.10;56.80
70460;DHT22;57920;54.796;9.430;2022-07-18T01:35:07;20.10;56.70
70460;DHT22;57920;54.796;9.430;2022-07-18T01:37:33;20.20;56.70
70460;DHT22;57920;54.796;9.430;2022-07-18T01:39:58;20.20;56.60
70460;DHT22;57920;54.796;9.430;2022-07-18T01:42:24;20.20;56.60
70460;DHT22;57920;54.796;9.430;2022-07-18T01:44:50;20.20;56.60
70460;DHT22;57920;54.796;9.430;2022-07-18T01:47:15;20.30;56.70
70460;DHT22;57920;54.796;9.430;2022-07-18T01:49:41;20.30;56.70
70460;DHT22;57920;54.796;9.430;2022-07-18T01:52:08;20.30;56.70
70460;DHT22;57920;54.796;9.430;2022-07-18T01:54:35;20.20;56.70
70460;DHT22;57920;54.796;9.430;2022-07-18T01:57:02;20.20;56.70
70460;DHT22;57920;54.796;9.430;2022-07-18T01:59:28;20.20;56.70
70460;DHT22;57920;54.796;9.430;2022-07-18T02:01:54;20.20;56.80
70460;DHT22;57920;54.796;9.430;2022-07-18T02:04:20;20.20;56.80
70460;DHT22;57920;54.796;9.430;2022-07-18T02:07:05;20.20;56.80
70460;DHT22;57920;54.796;9.430;2022-07-18T02:09:31;20.10;56.90
70460;DHT22;57920;54.796;9.430;2022-07-18T02:11:56;20.10;56.90
70460;DHT22;57920;54.796;9.430;2022-07-18T02:14:22;20.10;56.90
70460;DHT22;57920;54.796;9.430;2022-07-18T02:16:47;20.10;56.90
70460;DHT22;57920;54.796;9.430;2022-07-18T02:19:13;20.10;57.00
70460;DHT22;57920;54.796;9.430;2022-07-18T02:21:38;20.10;57.00
70460;DHT22;57920;54.796;9.430;2022-07-18T02:24:04;20.10;57.00
70460;DHT22;57920;54.796;9.430;2022-07-18T02:26:30;20.10;57.10
70460;DHT22;57920;54.796;9.430;2022-07-18T02:28:55;20.10;57.10
70460;DHT22;57920;54.796;9.430;2022-07-18T02:31:21;20.10;57.20
70460;DHT22;57920;54.796;9.430;2022-07-18T02:33:48;20.10;57.20
70460;DHT22;57920;54.796;9.430;2022-07-18T02:36:14;20.00;57.20
70460;DHT22;57920;54.796;9.430;2022-07-18T02:38:39;20.00;57.30
70460;DHT22;57920;54.796;9.430;2022-07-18T02:41:05;20.00;57.30
70460;DHT22;57920;54.796;9.430;2022-07-18T02:43:31;20.00;57.30
70460;DHT22;57920;54.796;9.430;2022-07-18T02:45:56;20.00;57.30
70460;DHT22;57920;54.796;9.430;2022-07-18T02:48:22;20.00;57.40
70460;DHT22;57920;54.796;9.430;2022-07-18T02:50:48;20.00;57.40
70460;DHT22;57920;54.796;9.430;2022-07-18T02:53:13;20.00;57.40
70460;DHT22;57920;54.796;9.430;2022-07-18T02:55:39;20.00;57.40
70460;DHT22;57920;54.796;9.430;2022-07-18T02:58:04;20.00;57.50
70460;DHT22;57920;54.796;9.430;2022-07-18T03:00:30;20.00;57.50
70460;DHT22;57920;54.796;9.430;2022-07-18T03:02:55;20.00;57.50
70460;DHT22;57920;54.796;9.430;2022-07-18T03:05:21;20.00;57.50
70460;DHT22;57920;54.796;9.430;2022-07-18T03:07:47;20.00;57.50
70460;DHT22;57920;54.796;9.430;2022-07-18T03:10:12;20.00;57.50
70460;DHT22;57920;54.796;9.430;2022-07-18T03:12:40;20.00;57.50
70460;DHT22;57920;54.796;9.430;2022-07-18T03:15:06;20.00;57.50
70460;DHT22;57920;54.796;9.430;2022-07-18T03:17:32;20.00;57.50
70460;DHT22;57920;54.796;9.430;2022-07-18T03:19:58;20.00;57.50
70460;DHT22;57920;54.796;9.430;2022-07-18T03:22:23;20.00;57.50
70460;DHT22;57920;54.796;9.430;2022-07-18T03:24:49;20.00;57.50
70460;DHT22;57920;54.796;9.430;2022-07-18T03:27:14;20.00;57.50
70460;DHT22;57920;54.796;9.430;2022-07-18T03:29:40;20.00;57.50
70460;DHT22;57920;54.796;9.430;2022-07-18T03:32:06;20.00;57.40
70460;DHT22;57920;54.796;9.430;2022-07-18T03:34:31;20.00;57.40
70460;DHT22;57920;54.796;9.430;2022-07-18T03:36:57;20.10;57.30
70460;DHT22;57920;54.796;9.430;2022-07-18T03:39:22;20.10;57.30
70460;DHT22;57920;54.796;9.430;2022-07-18T03:41:48;20.10;57.20
70460;DHT22;57920;54.796;9.430;2022-07-18T03:44:13;20.20;57.10
70460;DHT22;57920;54.796;9.430;2022-07-18T03:46:39;20.20;57.10
70460;DHT22;57920;54.796;9.430;2022-07-18T03:49:04;20.20;57.00
70460;DHT22;57920;54.796;9.430;2022-07-18T03:51:30;20.30;57.00
70460;DHT22;57920;54.796;9.430;2022-07-18T03:53:55;20.30;56.90
70460;DHT22;57920;54.796;9.430;2022-07-18T03:56:21;20.30;56.90
70460;DHT22;57920;54.796;9.430;2022-07-18T03:58:47;20.30;56.90
70460;DHT22;57920;54.796;9.430;2022-07-18T04:01:12;20.30;56.90
70460;DHT22;57920;54.796;9.430;2022-07-18T04:03:38;20.30;56.90
70460;DHT22;57920;54.796;9.430;2022-07-18T04:06:03;20.30;56.90
70460;DHT22;57920;54.796;9.430;2022-07-18T04:08:29;20.30;56.90
70460;DHT22;57920;54.796;9.430;2022-07-18T04:10:55;20.30;57.00
70460;DHT22;57920;54.796;9.430;2022-07-18T04:13:20;20.30;57.00
70460;DHT22;57920;54.796;9.430;2022-07-18T04:15:46;20.30;57.00
70460;DHT22;57920;54.796;9.430;2022-07-18T04:18:12;20.30;57.00
70460;DHT22;57920;54.796;9.430;2022-07-18T04:20:37;20.30;57.00
70460;DHT22;57920;54.796;9.430;2022-07-18T04:23:08;20.30;57.00
70460;DHT22;57920;54.796;9.430;2022-07-18T04:25:36;20.20;57.10
70460;DHT22;57920;54.796;9.430;2022-07-18T04:28:03;20.20;57.10
70460;DHT22;57920;54.796;9.430;2022-07-18T04:30:29;20.20;57.10
70460;DHT22;57920;54.796;9.430;2022-07-18T04:32:55;20.10;57.10
70460;DHT22;57920;54.796;9.430;2022-07-18T04:35:22;20.10;57.10
70460;DHT22;57920;54.796;9.430;2022-07-18T04:37:48;20.10;57.10
70460;DHT22;57920;54.796;9.430;2022-07-18T04:40:14;20.10;57.20
70460;DHT22;57920;54.796;9.430;2022-07-18T04:42:41;20.10;57.20
70460;DHT22;57920;54.796;9.430;2022-07-18T04:45:07;20.10;57.20
70460;DHT22;57920;54.796;9.430;2022-07-18T04:47:33;20.10;57.20
70460;DHT22;57920;54.796;9.430;2022-07-18T04:49:59;20.10;57.20
70460;DHT22;57920;54.796;9.430;2022-07-18T04:52:25;20.10;57.20
70460;DHT22;57920;54.796;9.430;2022-07-18T04:54:51;20.10;57.30
70460;DHT22;57920;54.796;9.430;2022-07-18T04:57:16;20.10;57.30
70460;DHT22;57920;54.796;9.430;2022-07-18T04:59:43;20.00;57.40
70460;DHT22;57920;54.796;9.430;2022-07-18T05:02:09;20.00;57.40
70460;DHT22;57920;54.796;9.430;2022-07-18T05:04:38;20.00;57.40
70460;DHT22;57920;54.796;9.430;2022-07-18T05:07:05;20.00;57.40
70460;DHT22;57920;54.796;9.430;2022-07-18T05:09:32;20.00;57.40
70460;DHT22;57920;54.796;9.430;2022-07-18T05:11:57;20.00;57.50
70460;DHT22;57920;54.796;9.430;2022-07-18T05:14:23;20.00;57.50
70460;DHT22;57920;54.796;9.430;2022-07-18T05:16:49;20.00;57.50
70460;DHT22;57920;54.796;9.430;2022-07-18T05:19:14;20.00;57.50
70460;DHT22;57920;54.796;9.430;2022-07-18T05:21:44;20.00;57.50
70460;DHT22;57920;54.796;9.430;2022-07-18T05:24:10;20.00;57.60
70460;DHT22;57920;54.796;9.430;2022-07-18T05:26:36;20.00;57.50
70460;DHT22;57920;54.796;9.430;2022-07-18T05:29:02;20.00;57.60
70460;DHT22;57920;54.796;9.430;2022-07-18T05:31:27;20.00;57.60
70460;DHT22;57920;54.796;9.430;2022-07-18T05:33:53;20.00;57.60
70460;DHT22;57920;54.796;9.430;2022-07-18T05:36:18;20.00;57.60
70460;DHT22;57920;54.796;9.430;2022-07-18T05:38:44;20.00;57.60
70460;DHT22;57920;54.796;9.430;2022-07-18T05:41:10;20.00;57.50
70460;DHT22;57920;54.796;9.430;2022-07-18T05:43:35;20.00;57.50
70460;DHT22;57920;54.796;9.430;2022-07-18T05:46:01;20.00;57.40
70460;DHT22;57920;54.796;9.430;2022-07-18T05:48:26;20.00;57.30
70460;DHT22;57920;54.796;9.430;2022-07-18T05:50:52;20.10;57.30
70460;DHT22;57920;54.796;9.430;2022-07-18T05:53:17;20.10;57.20
70460;DHT22;57920;54.796;9.430;2022-07-18T05:55:43;20.10;57.20
70460;DHT22;57920;54.796;9.430;2022-07-18T05:58:08;20.10;57.10
70460;DHT22;57920;54.796;9.430;2022-07-18T06:00:34;20.10;57.10
70460;DHT22;57920;54.796;9.430;2022-07-18T06:03:00;20.20;57.00
70460;DHT22;57920;54.796;9.430;2022-07-18T06:05:26;20.20;57.10
70460;DHT22;57920;54.796;9.430;2022-07-18T06:07:53;20.20;57.10
70460;DHT22;57920;54.796;9.430;2022-07-18T06:10:19;20.20;57.10
70460;DHT22;57920;54.796;9.430;2022-07-18T06:12:45;20.30;57.10
70460;DHT22;57920;54.796;9.430;2022-07-18T06:15:12;20.30;57.30
70460;DHT22;57920;54.796;9.430;2022-07-18T06:17:42;20.30;57.10
70460;DHT22;57920;54.796;9.430;2022-07-18T06:20:07;20.30;57.30
70460;DHT22;57920;54.796;9.430;2022-07-18T06:22:34;20.30;57.80
70460;DHT22;57920;54.796;9.430;2022-07-18T06:25:00;20.30;57.70
70460;DHT22;57920;54.796;9.430;2022-07-18T06:27:26;20.30;57.50
70460;DHT22;57920;54.796;9.430;2022-07-18T06:29:52;20.40;57.50
70460;DHT22;57920;54.796;9.430;2022-07-18T06:32:17;20.50;57.50
70460;DHT22;57920;54.796;9.430;2022-07-18T06:34:43;20.50;57.50
70460;DHT22;57920;54.796;9.430;2022-07-18T06:37:08;20.50;57.70
70460;DHT22;57920;54.796;9.430;2022-07-18T06:39:34;20.50;57.70
70460;DHT22;57920;54.796;9.430;2022-07-18T06:42:00;20.50;58.90
70460;DHT22;57920;54.796;9.430;2022-07-18T06:44:25;20.50;59.30
70460;DHT22;57920;54.796;9.430;2022-07-18T06:47:19;20.60;59.20
70460;DHT22;57920;54.796;9.430;2022-07-18T06:49:44;20.60;59.80
70460;DHT22;57920;54.796;9.430;2022-07-18T06:52:10;20.50;58.90
70460;DHT22;57920;54.796;9.430;2022-07-18T06:54:37;20.60;58.40
70460;DHT22;57920;54.796;9.430;2022-07-18T06:57:04;20.60;59.00
70460;DHT22;57920;54.796;9.430;2022-07-18T06:59:32;20.60;59.50
70460;DHT22;57920;54.796;9.430;2022-07-18T07:01:58;20.70;59.80
70460;DHT22;57920;54.796;9.430;2022-07-18T07:04:23;20.70;60.20
70460;DHT22;57920;54.796;9.430;2022-07-18T07:06:49;20.70;59.80
70460;DHT22;57920;54.796;9.430;2022-07-18T07:09:14;20.70;59.60
70460;DHT22;57920;54.796;9.430;2022-07-18T07:11:40;20.80;59.50
70460;DHT22;57920;54.796;9.430;2022-07-18T07:14:05;20.80;59.30
70460;DHT22;57920;54.796;9.430;2022-07-18T07:16:31;20.80;59.60
70460;DHT22;57920;54.796;9.430;2022-07-18T07:18:57;20.80;59.70
70460;DHT22;57920;54.796;9.430;2022-07-18T07:21:22;20.80;59.60
70460;DHT22;57920;54.796;9.430;2022-07-18T07:23:48;20.80;59.60
70460;DHT22;57920;54.796;9.430;2022-07-18T07:26:13;20.80;59.60
70460;DHT22;57920;54.796;9.430;2022-07-18T07:28:39;20.80;59.80
70460;DHT22;57920;54.796;9.430;2022-07-18T07:31:05;20.80;60.20
70460;DHT22;57920;54.796;9.430;2022-07-18T07:33:31;20.70;60.20
70460;DHT22;57920;54.796;9.430;2022-07-18T07:35:56;20.80;60.10
70460;DHT22;57920;54.796;9.430;2022-07-18T07:38:22;20.70;60.20
70460;DHT22;57920;54.796;9.430;2022-07-18T07:40:53;20.80;59.90
70460;DHT22;57920;54.796;9.430;2022-07-18T07:43:19;20.80;59.80
70460;DHT22;57920;54.796;9.430;2022-07-18T07:45:49;20.80;59.70
70460;DHT22;57920;54.796;9.430;2022-07-18T07:48:16;20.80;59.30
70460;DHT22;57920;54.796;9.430;2022-07-18T07:50:42;20.70;59.30
70460;DHT22;57920;54.796;9.430;2022-07-18T07:53:08;20.80;59.90
70460;DHT22;57920;54.796;9.430;2022-07-18T07:55:33;20.80;59.50
70460;DHT22;57920;54.796;9.430;2022-07-18T07:57:59;20.80;59.40
70460;DHT22;57920;54.796;9.430;2022-07-18T08:00:26;20.80;59.60
70460;DHT22;57920;54.796;9.430;2022-07-18T08:02:55;20.90;59.30
70460;DHT22;57920;54.796;9.430;2022-07-18T08:05:21;20.80;59.20
70460;DHT22;57920;54.796;9.430;2022-07-18T08:07:47;20.80;59.60
70460;DHT22;57920;54.796;9.430;2022-07-18T08:10:13;20.80;59.80
70460;DHT22;57920;54.796;9.430;2022-07-18T08:12:39;20.80;59.60
70460;DHT22;57920;54.796;9.430;2022-07-18T08:15:05;20.80;59.40
70460;DHT22;57920;54.796;9.430;2022-07-18T08:17:30;20.80;59.40
70460;DHT22;57920;54.796;9.430;2022-07-18T08:19:56;20.80;59.50
70460;DHT22;57920;54.796;9.430;2022-07-18T08:22:21;20.80;59.70
70460;DHT22;57920;54.796;9.430;2022-07-18T08:24:47;20.70;59.60
70460;DHT22;57920;54.796;9.430;2022-07-18T08:27:13;20.80;59.50
70460;DHT22;57920;54.796;9.430;2022-07-18T08:29:39;20.80;59.60
70460;DHT22;57920;54.796;9.430;2022-07-18T08:32:05;20.80;59.40
70460;DHT22;57920;54.796;9.430;2022-07-18T08:34:30;20.90;59.40
70460;DHT22;57920;54.796;9.430;2022-07-18T08:36:56;20.90;59.40
70460;DHT22;57920;54.796;9.430;2022-07-18T08:39:22;20.90;59.50
70460;DHT22;57920;54.796;9.430;2022-07-18T08:41:50;20.90;59.30
70460;DHT22;57920;54.796;9.430;2022-07-18T08:44:16;20.90;59.30
70460;DHT22;57920;54.796;9.430;2022-07-18T08:50:03;20.90;59.20
70460;DHT22;57920;54.796;9.430;2022-07-18T08:52:29;20.90;59.30
70460;DHT22;57920;54.796;9.430;2022-07-18T08:54:58;20.90;59.50
70460;DHT22;57920;54.796;9.430;2022-07-18T08:57:24;20.90;59.70
70460;DHT22;57920;54.796;9.430;2022-07-18T08:59:50;20.90;59.40
70460;DHT22;57920;54.796;9.430;2022-07-18T09:02:15;20.90;59.40
70460;DHT22;57920;54.796;9.430;2022-07-18T09:04:42;21.00;59.30
70460;DHT22;57920;54.796;9.430;2022-07-18T09:07:11;21.00;59.10
70460;DHT22;57920;54.796;9.430;2022-07-18T09:09:55;21.00;59.10
70460;DHT22;57920;54.796;9.430;2022-07-18T09:12:23;21.00;58.80
70460;DHT22;57920;54.796;9.430;2022-07-18T09:14:48;21.00;58.70
70460;DHT22;57920;54.796;9.430;2022-07-18T09:20:36;21.10;58.60
70460;DHT22;57920;54.796;9.430;2022-07-18T09:23:12;21.10;58.30
70460;DHT22;57920;54.796;9.430;2022-07-18T09:25:38;21.10;58.20
70460;DHT22;57920;54.796;9.430;2022-07-18T09:28:09;21.20;57.20
70460;DHT22;57920;54.796;9.430;2022-07-18T09:30:34;21.20;57.20
70460;DHT22;57920;54.796;9.430;2022-07-18T09:35:55;21.30;56.50
70460;DHT22;57920;54.796;9.430;2022-07-18T09:38:22;21.30;56.00
70460;DHT22;57920;54.796;9.430;2022-07-18T09:40:50;21.30;55.80
70460;DHT22;57920;54.796;9.430;2022-07-18T09:43:18;21.30;55.60
70460;DHT22;57920;54.796;9.430;2022-07-18T09:46:21;21.30;55.30
70460;DHT22;57920;54.796;9.430;2022-07-18T09:48:47;21.30;55.40
70460;DHT22;57920;54.796;9.430;2022-07-18T09:51:13;21.30;55.60
70460;DHT22;57920;54.796;9.430;2022-07-18T09:53:43;21.40;55.30
70460;DHT22;57920;54.796;9.430;2022-07-18T09:56:13;21.40;55.20
70460;DHT22;57920;54.796;9.430;2022-07-18T09:58:55;21.40;55.40
70460;DHT22;57920;54.796;9.430;2022-07-18T10:01:21;21.40;55.00
70460;DHT22;57920;54.796;9.430;2022-07-18T10:03:47;21.40;54.70
70460;DHT22;57920;54.796;9.430;2022-07-18T10:06:15;21.40;55.00
70460;DHT22;57920;54.796;9.430;2022-07-18T10:08:41;21.40;55.20
70460;DHT22;57920;54.796;9.430;2022-07-18T10:11:07;21.50;54.80
70460;DHT22;57920;54.796;9.430;2022-07-18T10:13:34;21.40;54.20
70460;DHT22;57920;54.796;9.430;2022-07-18T10:16:00;21.50;54.40
70460;DHT22;57920;54.796;9.430;2022-07-18T10:18:28;21.40;54.40
70460;DHT22;57920;54.796;9.430;2022-07-18T10:21:07;21.50;54.10
70460;DHT22;57920;54.796;9.430;2022-07-18T10:23:45;21.50;54.20
70460;DHT22;57920;54.796;9.430;2022-07-18T10:26:12;21.50;54.30
70460;DHT22;57920;54.796;9.430;2022-07-18T10:34:12;21.50;54.00
70460;DHT22;57920;54.796;9.430;2022-07-18T10:39:18;21.50;54.00
70460;DHT22;57920;54.796;9.430;2022-07-18T10:47:05;21.50;53.70
70460;DHT22;57920;54.796;9.430;2022-07-18T10:57:41;21.50;53.70
70460;DHT22;57920;54.796;9.430;2022-07-18T11:03:10;21.50;53.50
70460;DHT22;57920;54.796;9.430;2022-07-18T11:05:45;21.50;53.70
70460;DHT22;57920;54.796;9.430;2022-07-18T11:13:28;21.40;53.50
70460;DHT22;57920;54.796;9.430;2022-07-18T11:19:17;21.50;53.20
70460;DHT22;57920;54.796;9.430;2022-07-18T11:21:44;21.40;52.90
70460;DHT22;57920;54.796;9.430;2022-07-18T11:24:10;21.40;52.60
70460;DHT22;57920;54.796;9.430;2022-07-18T11:26:46;21.40;52.50
70460;DHT22;57920;54.796;9.430;2022-07-18T11:29:15;21.40;52.50
70460;DHT22;57920;54.796;9.430;2022-07-18T11:31:55;21.40;52.50
70460;DHT22;57920;54.796;9.430;2022-07-18T11:34:22;21.50;52.30
70460;DHT22;57920;54.796;9.430;2022-07-18T11:36:48;21.50;52.50
70460;DHT22;57920;54.796;9.430;2022-07-18T11:39:15;21.50;52.80
70460;DHT22;57920;54.796;9.430;2022-07-18T11:41:53;21.50;52.70
70460;DHT22;57920;54.796;9.430;2022-07-18T11:44:19;21.50;52.80
70460;DHT22;57920;54.796;9.430;2022-07-18T11:50:14;21.50;52.80
70460;DHT22;57920;54.796;9.430;2022-07-18T11:52:40;21.50;52.50
70460;DHT22;57920;54.796;9.430;2022-07-18T11:55:07;21.50;52.50
70460;DHT22;57920;54.796;9.430;2022-07-18T11:57:33;21.60;52.60
70460;DHT22;57920;54.796;9.430;2022-07-18T12:00:00;21.60;52.60
70460;DHT22;57920;54.796;9.430;2022-07-18T12:02:26;21.70;52.30
70460;DHT22;57920;54.796;9.430;2022-07-18T12:04:51;21.70;52.20
70460;DHT22;57920;54.796;9.430;2022-07-18T12:07:23;21.70;51.80
70460;DHT22;57920;54.796;9.430;2022-07-18T12:09:50;21.70;52.00
70460;DHT22;57920;54.796;9.430;2022-07-18T12:12:18;21.70;51.80
70460;DHT22;57920;54.796;9.430;2022-07-18T12:15:02;21.80;51.80
70460;DHT22;57920;54.796;9.430;2022-07-18T12:17:28;21.80;51.30
70460;DHT22;57920;54.796;9.430;2022-07-18T12:20:15;21.90;51.10
70460;DHT22;57920;54.796;9.430;2022-07-18T12:23:04;21.80;51.30
70460;DHT22;57920;54.796;9.430;2022-07-18T12:25:54;21.80;50.70
70460;DHT22;57920;54.796;9.430;2022-07-18T12:28:21;21.80;51.00
70460;DHT22;57920;54.796;9.430;2022-07-18T12:30:47;21.90;50.70
70460;DHT22;57920;54.796;9.430;2022-07-18T12:33:13;21.80;50.70
70460;DHT22;57920;54.796;9.430;2022-07-18T12:35:39;21.90;51.10
70460;DHT22;57920;54.796;9.430;2022-07-18T12:38:16;21.90;50.80
70460;DHT22;57920;54.796;9.430;2022-07-18T12:40:55;21.90;51.20
70460;DHT22;57920;54.796;9.430;2022-07-18T12:46:08;22.00;51.20
70460;DHT22;57920;54.796;9.430;2022-07-18T12:48:35;22.00;50.00
70460;DHT22;57920;54.796;9.430;2022-07-18T12:51:09;22.00;49.80
70460;DHT22;57920;54.796;9.430;2022-07-18T12:53:37;22.10;49.90
70460;DHT22;57920;54.796;9.430;2022-07-18T12:56:03;22.10;50.40
70460;DHT22;57920;54.796;9.430;2022-07-18T12:58:29;21.90;50.80
70460;DHT22;57920;54.796;9.430;2022-07-18T13:00:55;21.90;51.50
70460;DHT22;57920;54.796;9.430;2022-07-18T13:03:21;21.70;51.50
70460;DHT22;57920;54.796;9.430;2022-07-18T13:05:47;21.70;52.60
70460;DHT22;57920;54.796;9.430;2022-07-18T13:08:12;21.70;52.90
70460;DHT22;57920;54.796;9.430;2022-07-18T13:10:39;21.70;52.90
70460;DHT22;57920;54.796;9.430;2022-07-18T13:13:06;21.70;53.00
70460;DHT22;57920;54.796;9.430;2022-07-18T13:15:37;21.60;53.40
70460;DHT22;57920;54.796;9.430;2022-07-18T13:18:04;21.60;53.40
70460;DHT22;57920;54.796;9.430;2022-07-18T13:20:30;21.60;53.50
70460;DHT22;57920;54.796;9.430;2022-07-18T13:22:58;21.50;53.70
70460;DHT22;57920;54.796;9.430;2022-07-18T13:25:27;21.50;53.70
70460;DHT22;57920;54.796;9.430;2022-07-18T13:27:53;21.50;53.90
70460;DHT22;57920;54.796;9.430;2022-07-18T13:30:19;21.50;54.00
70460;DHT22;57920;54.796;9.430;2022-07-18T13:32:45;21.50;54.10
70460;DHT22;57920;54.796;9.430;2022-07-18T13:35:11;21.50;54.10
70460;DHT22;57920;54.796;9.430;2022-07-18T13:37:37;21.50;54.20
70460;DHT22;57920;54.796;9.430;2022-07-18T13:40:03;21.40;54.40
70460;DHT22;57920;54.796;9.430;2022-07-18T13:42:29;21.50;54.30
70460;DHT22;57920;54.796;9.430;2022-07-18T13:44:54;21.50;54.40
70460;DHT22;57920;54.796;9.430;2022-07-18T13:47:20;21.50;54.40
70460;DHT22;57920;54.796;9.430;2022-07-18T13:49:45;21.50;54.50
70460;DHT22;57920;54.796;9.430;2022-07-18T13:52:12;21.50;54.60
70460;DHT22;57920;54.796;9.430;2022-07-18T13:54:38;21.40;54.60
70460;DHT22;57920;54.796;9.430;2022-07-18T13:57:03;21.50;54.60
70460;DHT22;57920;54.796;9.430;2022-07-18T13:59:29;21.40;54.60
70460;DHT22;57920;54.796;9.430;2022-07-18T14:01:55;21.40;54.70
70460;DHT22;57920;54.796;9.430;2022-07-18T14:04:21;21.40;54.80
70460;DHT22;57920;54.796;9.430;2022-07-18T14:06:47;21.40;54.90
70460;DHT22;57920;54.796;9.430;2022-07-18T14:09:13;21.40;54.90
70460;DHT22;57920;54.796;9.430;2022-07-18T14:11:39;21.40;54.90
70460;DHT22;57920;54.796;9.430;2022-07-18T14:14:04;21.40;55.00
70460;DHT22;57920;54.796;9.430;2022-07-18T14:16:33;21.40;55.00
70460;DHT22;57920;54.796;9.430;2022-07-18T14:18:59;21.30;55.00
70460;DHT22;57920;54.796;9.430;2022-07-18T14:21:25;21.30;55.00
70460;DHT22;57920;54.796;9.430;2022-07-18T14:23:50;21.30;55.10
70460;DHT22;57920;54.796;9.430;2022-07-18T14:26:16;21.30;55.10
70460;DHT22;57920;54.796;9.430;2022-07-18T14:28:42;21.30;55.20
70460;DHT22;57920;54.796;9.430;2022-07-18T14:31:08;21.30;55.20
70460;DHT22;57920;54.796;9.430;2022-07-18T14:33:33;21.30;55.20
70460;DHT22;57920;54.796;9.430;2022-07-18T14:35:59;21.30;55.30
70460;DHT22;57920;54.796;9.430;2022-07-18T14:38:24;21.30;55.30
70460;DHT22;57920;54.796;9.430;2022-07-18T14:40:50;21.30;55.40
70460;DHT22;57920;54.796;9.430;2022-07-18T14:43:16;21.20;55.40
70460;DHT22;57920;54.796;9.430;2022-07-18T14:45:44;21.30;55.40
70460;DHT22;57920;54.796;9.430;2022-07-18T14:48:10;21.20;55.40
70460;DHT22;57920;54.796;9.430;2022-07-18T14:50:36;21.20;55.50
70460;DHT22;57920;54.796;9.430;2022-07-18T14:53:01;21.20;55.50
70460;DHT22;57920;54.796;9.430;2022-07-18T14:55:27;21.20;55.50
70460;DHT22;57920;54.796;9.430;2022-07-18T14:57:53;21.20;55.50
70460;DHT22;57920;54.796;9.430;2022-07-18T15:00:18;21.30;55.50
70460;DHT22;57920;54.796;9.430;2022-07-18T15:02:44;21.30;55.50
70460;DHT22;57920;54.796;9.430;2022-07-18T15:05:10;21.20;55.60
70460;DHT22;57920;54.796;9.430;2022-07-18T15:07:36;21.30;55.60
70460;DHT22;57920;54.796;9.430;2022-07-18T15:10:03;21.20;55.70
70460;DHT22;57920;54.796;9.430;2022-07-18T15:12:28;21.20;55.70
70460;DHT22;57920;54.796;9.430;2022-07-18T15:14:54;21.20;55.70
70460;DHT22;57920;54.796;9.430;2022-07-18T15:17:22;21.20;55.70
70460;DHT22;57920;54.796;9.430;2022-07-18T15:19:48;21.20;55.70
70460;DHT22;57920;54.796;9.430;2022-07-18T15:22:13;21.20;55.70
70460;DHT22;57920;54.796;9.430;2022-07-18T15:24:39;21.20;55.70
70460;DHT22;57920;54.796;9.430;2022-07-18T15:27:05;21.20;55.70
70460;DHT22;57920;54.796;9.430;2022-07-18T15:29:31;21.20;55.70
70460;DHT22;57920;54.796;9.430;2022-07-18T15:31:57;21.20;55.70
70460;DHT22;57920;54.796;9.430;2022-07-18T15:34:23;21.20;55.60
70460;DHT22;57920;54.796;9.430;2022-07-18T15:36:49;21.30;55.70
70460;DHT22;57920;54.796;9.430;2022-07-18T15:39:15;21.20;55.70
70460;DHT22;57920;54.796;9.430;2022-07-18T15:41:41;21.20;55.60
70460;DHT22;57920;54.796;9.430;2022-07-18T15:44:10;21.30;55.60
70460;DHT22;57920;54.796;9.430;2022-07-18T15:46:36;21.30;55.60
70460;DHT22;57920;54.796;9.430;2022-07-18T15:49:02;21.30;55.50
70460;DHT22;57920;54.796;9.430;2022-07-18T15:51:28;21.30;55.60
70460;DHT22;57920;54.796;9.430;2022-07-18T15:53:54;21.30;55.70
70460;DHT22;57920;54.796;9.430;2022-07-18T15:56:19;21.30;55.60
70460;DHT22;57920;54.796;9.430;2022-07-18T15:58:45;21.30;55.70
70460;DHT22;57920;54.796;9.430;2022-07-18T16:01:10;21.30;55.70
70460;DHT22;57920;54.796;9.430;2022-07-18T16:03:36;21.20;55.70
70460;DHT22;57920;54.796;9.430;2022-07-18T16:06:02;21.20;55.70
70460;DHT22;57920;54.796;9.430;2022-07-18T16:08:28;21.20;55.70
70460;DHT22;57920;54.796;9.430;2022-07-18T16:10:53;21.20;55.70
70460;DHT22;57920;54.796;9.430;2022-07-18T16:13:20;21.20;55.80
70460;DHT22;57920;54.796;9.430;2022-07-18T16:15:45;21.20;55.80
70460;DHT22;57920;54.796;9.430;2022-07-18T16:18:12;21.20;55.90